sensor_id;sensor_type;location;lat;lon;timestamp;pressure;altitude;pressure_sealevel;temperature;humidity
49315;BME280;36672;50.710;12.498;2023-03-14T00:01:16;96400.22;;;8.97;100.00
49315;BME280;36672;50.710;12.498;2023-03-14T00:03:42;96404.75;;;8.96;100.00
49315;BME280;36672;50.710;12.498;2023-03-14T00:06:08;96406.91;;;8.94;100.00
49315;BME280;36672;50.710;12.498;2023-03-14T00:08:34;96407.94;;;8.93;100.00
49315;BME280;36672;50.710;12.498;2023-03-14T00:11:09;96414.41;;;8.92;100.00
49315;BME280;36672;50.710;12.498;2023-03-14T00:13:35;96418.63;;;8.88;100.00
49315;BME280;36672;50.710;12.498;2023-03-14T00:16:01;96415.94;;;8.88;100.00
49315;BME280;36672;50.710;12.498;2023-03-14T00:18:26;96417.25;;;8.86;100.00
49315;BME280;36672;50.710;12.498;2023-03-14T00:20:52;96413.72;;;8.85;100.00
49315;BME280;36672;50.710;12.498;2023-03-14T00:23:17;96425.53;;;8.84;100.00
49315;BME280;36672;50.710;12.498;2023-03-14T00:25:42;96422.84;;;8.84;100.00
49315;BME280;36672;50.710;12.498;2023-03-14T00:28:07;96426.97;;;8.87;100.00
49315;BME280;36672;50.710;12.498;2023-03-14T00:30:32;96438.63;;;8.92;100.00
49315;BME280;36672;50.710;12.498;2023-03-14T00:32:58;96436.75;;;8.93;100.00
49315;BME280;36672;50.710;12.498;2023-03-14T00:35:23;96449.16;;;8.94;100.00
49315;BME280;36672;50.710;12.498;2023-03-14T00:37:48;96469.91;;;8.93;100.00
49315;BME280;36672;50.710;12.498;2023-03-14T00:40:13;96456.34;;;8.88;100.00
49315;BME280;36672;50.710;12.498;2023-03-14T00:42:38;96439.50;;;8.81;100.00
49315;BME280;36672;50.710;12.498;2023-03-14T00:45:04;96426.53;;;8.78;100.00
49315;BME280;36672;50.710;12.498;2023-03-14T00:47:29;96431.16;;;8.82;100.00
49315;BME280;36672;50.710;12.498;2023-03-14T00:49:54;96420.66;;;8.81;100.00
49315;BME280;36672;50.710;12.498;2023-03-14T00:52:20;96417.69;;;8.82;100.00
49315;BME280;36672;50.710;12.498;2023-03-14T00:54:45;96431.75;;;8.85;99.78
49315;BME280;36672;50.710;12.498;2023-03-14T00:57:10;96423.19;;;8.88;98.33
49315;BME280;36672;50.710;12.498;2023-03-14T00:59:35;96421.88;;;8.90;97.68
49315;BME280;36672;50.710;12.498;2023-03-14T01:02:01;96433.25;;;8.92;95.98
49315;BME280;36672;50.710;12.498;2023-03-14T01:04:26;96438.72;;;8.97;95.99
49315;BME280;36672;50.710;12.498;2023-03-14T01:06:51;96436.38;;;9.01;96.12
49315;BME280;36672;50.710;12.498;2023-03-14T01:09:16;96441.25;;;9.04;94.97
49315;BME280;36672;50.710;12.498;2023-03-14T01:11:42;96477.91;;;9.05;93.36
49315;BME280;36672;50.710;12.498;2023-03-14T01:14:11;96423.34;;;9.10;93.08
49315;BME280;36672;50.710;12.498;2023-03-14T01:16:36;96467.00;;;9.12;92.47
49315;BME280;36672;50.710;12.498;2023-03-14T01:19:02;96434.19;;;9.15;91.75
49315;BME280;36672;50.710;12.498;2023-03-14T01:21:28;96432.91;;;9.18;90.90
49315;BME280;36672;50.710;12.498;2023-03-14T01:23:55;96427.25;;;9.19;90.71
49315;BME280;36672;50.710;12.498;2023-03-14T01:26:21;96419.19;;;9.19;90.96
49315;BME280;36672;50.710;12.498;2023-03-14T01:28:48;96419.19;;;9.19;90.98
49315;BME280;36672;50.710;12.498;2023-03-14T01:31:13;96418.72;;;9.22;90.83
49315;BME280;36672;50.710;12.498;2023-03-14T01:33:39;96418.94;;;9.21;89.06
49315;BME280;36672;50.710;12.498;2023-03-14T01:36:05;96429.47;;;9.22;89.23
49315;BME280;36672;50.710;12.498;2023-03-14T01:38:34;96419.25;;;9.24;88.73
49315;BME280;36672;50.710;12.498;2023-03-14T01:41:00;96423.34;;;9.27;88.54
49315;BME280;36672;50.710;12.498;2023-03-14T01:43:25;96421.22;;;9.29;87.72
49315;BME280;36672;50.710;12.498;2023-03-14T01:48:36;96442.72;;;9.41;86.84
49315;BME280;36672;50.710;12.498;2023-03-14T01:51:02;96438.16;;;9.41;86.11
49315;BME280;36672;50.710;12.498;2023-03-14T01:53:30;96447.06;;;9.42;85.01
49315;BME280;36672;50.710;12.498;2023-03-14T01:55:55;96438.16;;;9.41;85.95
49315;BME280;36672;50.710;12.498;2023-03-14T01:58:23;96426.78;;;9.39;85.51
49315;BME280;36672;50.710;12.498;2023-03-14T02:00:52;96435.38;;;9.36;85.55
49315;BME280;36672;50.710;12.498;2023-03-14T02:03:17;96416.75;;;9.35;85.06
49315;BME280;36672;50.710;12.498;2023-03-14T02:05:46;96409.75;;;9.34;84.07
49315;BME280;36672;50.710;12.498;2023-03-14T02:08:14;96412.19;;;9.35;84.22
49315;BME280;36672;50.710;12.498;2023-03-14T02:10:44;96412.44;;;9.34;84.35
49315;BME280;36672;50.710;12.498;2023-03-14T02:13:09;96405.72;;;9.36;85.32
49315;BME280;36672;50.710;12.498;2023-03-14T02:15:35;96404.56;;;9.32;84.18
49315;BME280;36672;50.710;12.498;2023-03-14T02:18:01;96400.25;;;9.31;84.61
49315;BME280;36672;50.710;12.498;2023-03-14T02:22:55;96391.25;;;9.25;83.50
49315;BME280;36672;50.710;12.498;2023-03-14T02:28:24;96403.00;;;9.19;84.12
49315;BME280;36672;50.710;12.498;2023-03-14T02:30:49;96402.19;;;9.19;84.48
49315;BME280;36672;50.710;12.498;2023-03-14T02:33:18;96390.03;;;9.16;83.25
49315;BME280;36672;50.710;12.498;2023-03-14T02:35:46;96381.97;;;9.16;83.93
49315;BME280;36672;50.710;12.498;2023-03-14T02:40:40;96382.22;;;9.14;84.73
49315;BME280;36672;50.710;12.498;2023-03-14T02:43:05;96371.31;;;9.09;84.69
49315;BME280;36672;50.710;12.498;2023-03-14T02:47:57;96379.09;;;9.06;84.61
49315;BME280;36672;50.710;12.498;2023-03-14T02:50:26;96376.53;;;8.99;84.73
49315;BME280;36672;50.710;12.498;2023-03-14T02:52:53;96397.19;;;8.93;84.04
49315;BME280;36672;50.710;12.498;2023-03-14T02:55:22;96383.97;;;8.92;84.39
49315;BME280;36672;50.710;12.498;2023-03-14T02:57:47;96384.19;;;8.90;84.47
49315;BME280;36672;50.710;12.498;2023-03-14T03:00:13;96390.06;;;8.87;85.21
49315;BME280;36672;50.710;12.498;2023-03-14T03:02:38;96379.75;;;8.84;85.05
49315;BME280;36672;50.710;12.498;2023-03-14T03:05:03;96392.66;;;8.82;84.69
49315;BME280;36672;50.710;12.498;2023-03-14T03:07:29;96387.75;;;8.79;85.41
49315;BME280;36672;50.710;12.498;2023-03-14T03:09:54;96411.06;;;8.73;84.51
49315;BME280;36672;50.710;12.498;2023-03-14T03:12:19;96386.03;;;8.73;84.65
49315;BME280;36672;50.710;12.498;2023-03-14T03:14:44;96376.31;;;8.72;84.10
49315;BME280;36672;50.710;12.498;2023-03-14T03:17:09;96398.66;;;8.72;84.70
49315;BME280;36672;50.710;12.498;2023-03-14T03:19:35;96411.53;;;8.70;84.78
49315;BME280;36672;50.710;12.498;2023-03-14T03:22:00;96398.06;;;8.70;84.48
49315;BME280;36672;50.710;12.498;2023-03-14T03:24:26;96413.91;;;8.67;84.50
49315;BME280;36672;50.710;12.498;2023-03-14T03:26:51;96409.09;;;8.69;84.41
49315;BME280;36672;50.710;12.498;2023-03-14T03:29:17;96394.81;;;8.68;84.71
49315;BME280;36672;50.710;12.498;2023-03-14T03:31:42;96388.41;;;8.69;84.18
49315;BME280;36672;50.710;12.498;2023-03-14T03:34:10;96382.41;;;8.67;84.02
49315;BME280;36672;50.710;12.498;2023-03-14T03:36:35;96383.81;;;8.70;84.26
49315;BME280;36672;50.710;12.498;2023-03-14T03:39:01;96388.16;;;8.71;84.92
49315;BME280;36672;50.710;12.498;2023-03-14T03:41:26;96375.50;;;8.71;83.71
49315;BME280;36672;50.710;12.498;2023-03-14T03:43:51;96369.31;;;8.71;84.54
49315;BME280;36672;50.710;12.498;2023-03-14T03:46:16;96377.63;;;8.69;83.96
49315;BME280;36672;50.710;12.498;2023-03-14T03:48:41;96375.41;;;8.66;83.19
49315;BME280;36672;50.710;12.498;2023-03-14T03:51:07;96378.34;;;8.64;83.71
49315;BME280;36672;50.710;12.498;2023-03-14T03:53:32;96379.13;;;8.65;84.02
49315;BME280;36672;50.710;12.498;2023-03-14T03:55:57;96368.88;;;8.62;83.21
49315;BME280;36672;50.710;12.498;2023-03-14T03:58:22;96367.47;;;8.59;83.18
49315;BME280;36672;50.710;12.498;2023-03-14T04:00:48;96373.44;;;8.61;83.37
49315;BME280;36672;50.710;12.498;2023-03-14T04:03:13;96372.84;;;8.59;83.93
49315;BME280;36672;50.710;12.498;2023-03-14T04:05:38;96381.41;;;8.56;83.67
49315;BME280;36672;50.710;12.498;2023-03-14T04:08:03;96387.03;;;8.55;83.62
49315;BME280;36672;50.710;12.498;2023-03-14T04:10:29;96384.91;;;8.57;84.61
49315;BME280;36672;50.710;12.498;2023-03-14T04:12:54;96388.41;;;8.57;83.92
49315;BME280;36672;50.710;12.498;2023-03-14T04:15:19;96377.75;;;8.62;83.58
49315;BME280;36672;50.710;12.498;2023-03-14T04:17:45;96377.28;;;8.65;83.63
49315;BME280;36672;50.710;12.498;2023-03-14T04:20:10;96371.66;;;8.67;83.32
49315;BME280;36672;50.710;12.498;2023-03-14T04:22:36;96377.38;;;8.71;83.59
49315;BME280;36672;50.710;12.498;2023-03-14T04:25:01;96367.19;;;8.73;82.84
49315;BME280;36672;50.710;12.498;2023-03-14T04:27:28;96364.00;;;8.76;83.39
49315;BME280;36672;50.710;12.498;2023-03-14T04:29:53;96365.06;;;8.75;82.10
49315;BME280;36672;50.710;12.498;2023-03-14T04:32:18;96348.44;;;8.78;83.12
49315;BME280;36672;50.710;12.498;2023-03-14T04:34:43;96365.97;;;8.80;82.67
49315;BME280;36672;50.710;12.498;2023-03-14T04:37:09;96356.81;;;8.81;82.50
49315;BME280;36672;50.710;12.498;2023-03-14T04:39:34;96357.41;;;8.84;82.35
49315;BME280;36672;50.710;12.498;2023-03-14T04:41:59;96350.13;;;8.84;81.37
49315;BME280;36672;50.710;12.498;2023-03-14T04:44:24;96344.28;;;8.87;81.70
49315;BME280;36672;50.710;12.498;2023-03-14T04:46:50;96348.63;;;8.88;80.81
49315;BME280;36672;50.710;12.498;2023-03-14T04:49:15;96337.84;;;8.88;81.21
49315;BME280;36672;50.710;12.498;2023-03-14T04:51:40;96333.84;;;8.91;81.43
49315;BME280;36672;50.710;12.498;2023-03-14T04:54:05;96333.59;;;8.92;81.80
49315;BME280;36672;50.710;12.498;2023-03-14T04:56:31;96311.00;;;8.93;81.47
49315;BME280;36672;50.710;12.498;2023-03-14T04:58:56;96309.03;;;8.89;80.70
49315;BME280;36672;50.710;12.498;2023-03-14T05:01:21;96311.97;;;8.87;80.31
49315;BME280;36672;50.710;12.498;2023-03-14T05:03:46;96299.56;;;8.86;79.60
49315;BME280;36672;50.710;12.498;2023-03-14T05:06:11;96293.94;;;8.88;80.72
49315;BME280;36672;50.710;12.498;2023-03-14T05:08:37;96296.06;;;8.86;80.23
49315;BME280;36672;50.710;12.498;2023-03-14T05:11:02;96282.34;;;8.87;80.92
49315;BME280;36672;50.710;12.498;2023-03-14T05:13:27;96275.31;;;8.86;80.73
49315;BME280;36672;50.710;12.498;2023-03-14T05:15:53;96280.13;;;8.84;80.10
49315;BME280;36672;50.710;12.498;2023-03-14T05:18:20;96266.91;;;8.82;80.53
49315;BME280;36672;50.710;12.498;2023-03-14T05:20:45;96266.66;;;8.84;80.75
49315;BME280;36672;50.710;12.498;2023-03-14T05:23:10;96274.44;;;8.80;80.82
49315;BME280;36672;50.710;12.498;2023-03-14T05:25:35;96278.66;;;8.76;80.09
49315;BME280;36672;50.710;12.498;2023-03-14T05:28:01;96283.47;;;8.74;79.49
49315;BME280;36672;50.710;12.498;2023-03-14T05:30:26;96279.50;;;8.77;79.41
49315;BME280;36672;50.710;12.498;2023-03-14T05:32:53;96277.13;;;8.80;80.62
49315;BME280;36672;50.710;12.498;2023-03-14T05:35:18;96280.88;;;8.79;80.37
49315;BME280;36672;50.710;12.498;2023-03-14T05:37:44;96280.38;;;8.82;80.80
49315;BME280;36672;50.710;12.498;2023-03-14T05:40:09;96270.66;;;8.81;80.62
49315;BME280;36672;50.710;12.498;2023-03-14T05:42:35;96276.38;;;8.85;80.80
49315;BME280;36672;50.710;12.498;2023-03-14T05:45:00;96280.13;;;8.84;79.37
49315;BME280;36672;50.710;12.498;2023-03-14T05:47:25;96289.94;;;8.90;80.17
49315;BME280;36672;50.710;12.498;2023-03-14T05:49:50;96290.75;;;8.91;78.52
49315;BME280;36672;50.710;12.498;2023-03-14T05:52:16;96291.91;;;8.95;78.64
49315;BME280;36672;50.710;12.498;2023-03-14T05:54:41;96282.03;;;9.01;79.15
49315;BME280;36672;50.710;12.498;2023-03-14T05:57:06;96286.91;;;9.04;78.21
49315;BME280;36672;50.710;12.498;2023-03-14T05:59:31;96284.56;;;9.07;78.72
49315;BME280;36672;50.710;12.498;2023-03-14T06:01:57;96297.84;;;9.14;78.72
49315;BME280;36672;50.710;12.498;2023-03-14T06:04:22;96300.06;;;9.17;78.19
49315;BME280;36672;50.710;12.498;2023-03-14T06:06:47;96302.84;;;9.22;78.34
49315;BME280;36672;50.710;12.498;2023-03-14T06:09:12;96311.47;;;9.24;77.73
49315;BME280;36672;50.710;12.498;2023-03-14T06:11:38;96305.03;;;9.25;76.97
49315;BME280;36672;50.710;12.498;2023-03-14T06:14:03;96314.50;;;9.28;76.72
49315;BME280;36672;50.710;12.498;2023-03-14T06:16:28;96312.41;;;9.30;75.72
49315;BME280;36672;50.710;12.498;2023-03-14T06:18:53;96315.97;;;9.36;76.41
49315;BME280;36672;50.710;12.498;2023-03-14T06:21:18;96318.41;;;9.37;75.83
49315;BME280;36672;50.710;12.498;2023-03-14T06:23:44;96300.44;;;9.43;76.29
49315;BME280;36672;50.710;12.498;2023-03-14T06:26:09;96309.59;;;9.42;75.52
49315;BME280;36672;50.710;12.498;2023-03-14T06:28:36;96312.38;;;9.47;75.82
49315;BME280;36672;50.710;12.498;2023-03-14T06:31:02;96317.75;;;9.47;75.84
49315;BME280;36672;50.710;12.498;2023-03-14T06:33:27;96309.19;;;9.50;75.47
49315;BME280;36672;50.710;12.498;2023-03-14T06:35:52;96304.09;;;9.54;75.18
49315;BME280;36672;50.710;12.498;2023-03-14T06:38:17;96311.44;;;9.58;75.87
49315;BME280;36672;50.710;12.498;2023-03-14T06:40:42;96317.41;;;9.60;75.29
49315;BME280;36672;50.710;12.498;2023-03-14T06:43:08;96326.88;;;9.63;75.25
49315;BME280;36672;50.710;12.498;2023-03-14T06:45:33;96328.81;;;9.68;75.26
49315;BME280;36672;50.710;12.498;2023-03-14T06:47:58;96324.53;;;9.67;74.88
49315;BME280;36672;50.710;12.498;2023-03-14T06:50:23;96330.19;;;9.70;75.68
49315;BME280;36672;50.710;12.498;2023-03-14T06:52:48;96329.72;;;9.73;75.03
49315;BME280;36672;50.710;12.498;2023-03-14T06:55:14;96326.78;;;9.75;74.25
49315;BME280;36672;50.710;12.498;2023-03-14T06:57:40;96327.91;;;9.79;73.96
49315;BME280;36672;50.710;12.498;2023-03-14T07:00:05;96335.78;;;9.81;73.57
49315;BME280;36672;50.710;12.498;2023-03-14T07:02:31;96338.69;;;9.79;72.58
49315;BME280;36672;50.710;12.498;2023-03-14T07:04:56;96320.25;;;9.71;71.88
49315;BME280;36672;50.710;12.498;2023-03-14T07:07:21;96341.81;;;9.71;72.67
49315;BME280;36672;50.710;12.498;2023-03-14T07:09:46;96335.59;;;9.70;72.75
49315;BME280;36672;50.710;12.498;2023-03-14T07:12:12;96324.06;;;9.75;73.22
49315;BME280;36672;50.710;12.498;2023-03-14T07:14:37;96331.09;;;9.76;72.13
49315;BME280;36672;50.710;12.498;2023-03-14T07:17:02;96333.88;;;9.81;71.92
49315;BME280;36672;50.710;12.498;2023-03-14T07:19:27;96330.44;;;9.86;71.46
49315;BME280;36672;50.710;12.498;2023-03-14T07:21:52;96327.28;;;9.94;72.06
49315;BME280;36672;50.710;12.498;2023-03-14T07:24:18;96330.56;;;9.96;71.35
49315;BME280;36672;50.710;12.498;2023-03-14T07:26:43;96330.97;;;10.05;71.65
49315;BME280;36672;50.710;12.498;2023-03-14T07:29:08;96328.38;;;10.15;71.19
49315;BME280;36672;50.710;12.498;2023-03-14T07:31:33;96336.84;;;10.24;70.69
49315;BME280;36672;50.710;12.498;2023-03-14T07:33:59;96341.56;;;10.34;70.35
49315;BME280;36672;50.710;12.498;2023-03-14T07:36:24;96343.53;;;10.38;68.63
49315;BME280;36672;50.710;12.498;2023-03-14T07:38:49;96334.09;;;10.41;68.37
49315;BME280;36672;50.710;12.498;2023-03-14T07:41:14;96320.91;;;10.44;68.67
49315;BME280;36672;50.710;12.498;2023-03-14T07:43:40;96338.00;;;10.50;68.57
49315;BME280;36672;50.710;12.498;2023-03-14T07:46:06;96333.63;;;10.44;67.90
49315;BME280;36672;50.710;12.498;2023-03-14T07:48:31;96329.34;;;10.48;68.23
49315;BME280;36672;50.710;12.498;2023-03-14T07:50:56;96326.78;;;10.64;68.61
49315;BME280;36672;50.710;12.498;2023-03-14T07:53:22;96326.25;;;10.62;67.15
49315;BME280;36672;50.710;12.498;2023-03-14T07:55:49;96322.75;;;10.66;67.91
49315;BME280;36672;50.710;12.498;2023-03-14T07:58:15;96316.59;;;10.71;68.27
49315;BME280;36672;50.710;12.498;2023-03-14T08:00:40;96315.06;;;10.80;67.00
49315;BME280;36672;50.710;12.498;2023-03-14T08:03:05;96321.13;;;10.92;67.25
49315;BME280;36672;50.710;12.498;2023-03-14T08:05:33;96315.13;;;11.18;66.50
49315;BME280;36672;50.710;12.498;2023-03-14T08:07:58;96313.56;;;11.65;64.38
49315;BME280;36672;50.710;12.498;2023-03-14T08:10:24;96310.41;;;12.31;65.36
49315;BME280;36672;50.710;12.498;2023-03-14T08:12:49;96306.69;;;12.53;62.49
49315;BME280;36672;50.710;12.498;2023-03-14T08:15:15;96295.59;;;12.60;60.72
49315;BME280;36672;50.710;12.498;2023-03-14T08:17:40;96306.72;;;12.68;62.27
49315;BME280;36672;50.710;12.498;2023-03-14T08:20:05;96290.69;;;12.51;59.81
49315;BME280;36672;50.710;12.498;2023-03-14T08:22:33;96295.47;;;12.18;61.05
49315;BME280;36672;50.710;12.498;2023-03-14T08:24:58;96290.84;;;12.09;63.04
49315;BME280;36672;50.710;12.498;2023-03-14T08:27:23;96286.25;;;12.14;63.04
49315;BME280;36672;50.710;12.498;2023-03-14T08:29:48;96300.56;;;12.10;63.30
49315;BME280;36672;50.710;12.498;2023-03-14T08:32:13;96292.34;;;11.94;61.84
49315;BME280;36672;50.710;12.498;2023-03-14T08:34:39;96293.69;;;11.91;63.99
49315;BME280;36672;50.710;12.498;2023-03-14T08:37:05;96288.28;;;11.91;63.15
49315;BME280;36672;50.710;12.498;2023-03-14T08:39:30;96297.28;;;11.97;63.17
49315;BME280;36672;50.710;12.498;2023-03-14T08:41:55;96301.00;;;11.86;62.71
49315;BME280;36672;50.710;12.498;2023-03-14T08:44:21;96303.91;;;11.79;62.88
49315;BME280;36672;50.710;12.498;2023-03-14T08:46:46;96298.75;;;11.72;63.19
49315;BME280;36672;50.710;12.498;2023-03-14T08:49:11;96300.38;;;11.73;63.68
49315;BME280;36672;50.710;12.498;2023-03-14T08:51:36;96304.75;;;11.80;63.71
49315;BME280;36672;50.710;12.498;2023-03-14T08:54:01;96308.25;;;11.80;63.90
49315;BME280;36672;50.710;12.498;2023-03-14T08:56:27;96309.81;;;11.71;63.46
49315;BME280;36672;50.710;12.498;2023-03-14T08:58:52;96307.28;;;11.54;63.65
49315;BME280;36672;50.710;12.498;2023-03-14T09:01:17;96307.47;;;11.42;63.34
49315;BME280;36672;50.710;12.498;2023-03-14T09:03:44;96305.03;;;11.40;64.38
49315;BME280;36672;50.710;12.498;2023-03-14T09:06:12;96313.97;;;11.46;63.85
49315;BME280;36672;50.710;12.498;2023-03-14T09:08:37;96310.78;;;11.49;64.06
49315;BME280;36672;50.710;12.498;2023-03-14T09:11:03;96305.75;;;11.68;63.71
49315;BME280;36672;50.710;12.498;2023-03-14T09:13:28;96310.34;;;11.68;62.92
49315;BME280;36672;50.710;12.498;2023-03-14T09:15:54;96333.22;;;11.50;61.80
49315;BME280;36672;50.710;12.498;2023-03-14T09:18:19;96324.28;;;11.49;62.71
49315;BME280;36672;50.710;12.498;2023-03-14T09:20:45;96320.38;;;11.35;62.19
49315;BME280;36672;50.710;12.498;2023-03-14T09:23:10;96325.28;;;11.38;62.59
49315;BME280;36672;50.710;12.498;2023-03-14T09:25:35;96325.78;;;11.35;61.51
49315;BME280;36672;50.710;12.498;2023-03-14T09:28:00;96335.78;;;11.29;62.46
49315;BME280;36672;50.710;12.498;2023-03-14T09:30:26;96335.78;;;11.29;63.19
49315;BME280;36672;50.710;12.498;2023-03-14T09:32:51;96337.97;;;11.37;62.22
49315;BME280;36672;50.710;12.498;2023-03-14T09:35:16;96329.13;;;11.47;63.04
49315;BME280;36672;50.710;12.498;2023-03-14T09:37:41;96330.81;;;11.53;63.48
49315;BME280;36672;50.710;12.498;2023-03-14T09:40:09;96332.50;;;11.65;61.50
49315;BME280;36672;50.710;12.498;2023-03-14T09:42:37;96335.47;;;11.63;61.72
49315;BME280;36672;50.710;12.498;2023-03-14T09:45:04;96328.75;;;11.71;61.58
49315;BME280;36672;50.710;12.498;2023-03-14T09:47:33;96324.50;;;11.85;61.31
49315;BME280;36672;50.710;12.498;2023-03-14T09:50:02;96321.59;;;11.92;61.87
49315;BME280;36672;50.710;12.498;2023-03-14T09:52:30;96318.94;;;11.97;60.89
49315;BME280;36672;50.710;12.498;2023-03-14T09:54:59;96324.72;;;11.73;60.53
49315;BME280;36672;50.710;12.498;2023-03-14T09:57:27;96320.84;;;12.07;61.44
49315;BME280;36672;50.710;12.498;2023-03-14T09:59:54;96327.50;;;12.42;59.35
49315;BME280;36672;50.710;12.498;2023-03-14T10:04:47;96322.66;;;12.49;58.56
49315;BME280;36672;50.710;12.498;2023-03-14T10:07:14;96321.00;;;12.38;58.62
49315;BME280;36672;50.710;12.498;2023-03-14T10:09:42;96324.84;;;12.68;58.64
49315;BME280;36672;50.710;12.498;2023-03-14T10:12:07;96317.34;;;13.21;55.98
49315;BME280;36672;50.710;12.498;2023-03-14T10:14:34;96314.88;;;13.87;55.97
49315;BME280;36672;50.710;12.498;2023-03-14T10:17:07;96324.19;;;14.36;53.31
49315;BME280;36672;50.710;12.498;2023-03-14T10:19:33;96301.88;;;14.49;53.88
49315;BME280;36672;50.710;12.498;2023-03-14T10:22:00;96321.00;;;14.84;51.95
49315;BME280;36672;50.710;12.498;2023-03-14T10:24:30;96329.50;;;14.72;52.28
49315;BME280;36672;50.710;12.498;2023-03-14T10:27:00;96324.81;;;14.23;52.85
49315;BME280;36672;50.710;12.498;2023-03-14T10:29:29;96329.25;;;13.88;53.31
49315;BME280;36672;50.710;12.498;2023-03-14T10:32:02;96330.34;;;13.35;54.61
49315;BME280;36672;50.710;12.498;2023-03-14T10:36:57;96332.78;;;12.90;56.07
49315;BME280;36672;50.710;12.498;2023-03-14T10:39:28;96334.38;;;12.76;56.31
49315;BME280;36672;50.710;12.498;2023-03-14T10:41:56;96346.50;;;12.63;57.56
49315;BME280;36672;50.710;12.498;2023-03-14T10:44:26;96336.81;;;12.77;58.02
49315;BME280;36672;50.710;12.498;2023-03-14T10:47:01;96339.81;;;12.81;56.50
49315;BME280;36672;50.710;12.498;2023-03-14T10:49:29;96343.88;;;12.83;55.72
49315;BME280;36672;50.710;12.498;2023-03-14T10:51:54;96336.84;;;13.03;56.83
49315;BME280;36672;50.710;12.498;2023-03-14T10:54:20;96340.63;;;12.92;56.63
49315;BME280;36672;50.710;12.498;2023-03-14T10:56:50;96342.25;;;12.77;56.70
49315;BME280;36672;50.710;12.498;2023-03-14T10:59:20;96348.09;;;12.43;57.73
49315;BME280;36672;50.710;12.498;2023-03-14T11:09:50;96361.19;;;12.72;58.12
49315;BME280;36672;50.710;12.498;2023-03-14T11:14:52;96363.31;;;12.60;58.65
49315;BME280;36672;50.710;12.498;2023-03-14T11:17:21;96365.75;;;12.61;58.13
49315;BME280;36672;50.710;12.498;2023-03-14T11:32:31;96383.88;;;12.50;59.52
49315;BME280;36672;50.710;12.498;2023-03-14T11:34:59;96390.97;;;12.67;58.86
49315;BME280;36672;50.710;12.498;2023-03-14T11:37:39;96373.59;;;12.57;58.28
49315;BME280;36672;50.710;12.498;2023-03-14T11:42:33;96376.84;;;12.54;59.18
49315;BME280;36672;50.710;12.498;2023-03-14T11:44:58;96359.53;;;12.66;58.95
49315;BME280;36672;50.710;12.498;2023-03-14T11:47:29;96374.75;;;12.82;59.27
49315;BME280;36672;50.710;12.498;2023-03-14T11:50:05;96363.38;;;12.91;58.57
49315;BME280;36672;50.710;12.498;2023-03-14T11:52:34;96357.03;;;12.49;58.80
49315;BME280;36672;50.710;12.498;2023-03-14T11:57:25;96350.00;;;12.48;60.24
49315;BME280;36672;50.710;12.498;2023-03-14T12:00:13;96349.75;;;12.54;60.04
49315;BME280;36672;50.710;12.498;2023-03-14T12:02:45;96352.44;;;12.44;59.31
49315;BME280;36672;50.710;12.498;2023-03-14T12:10:36;96348.53;;;12.19;60.06
49315;BME280;36672;50.710;12.498;2023-03-14T12:13:02;96340.69;;;12.23;60.53
49315;BME280;36672;50.710;12.498;2023-03-14T12:15:28;96334.22;;;12.24;59.53
49315;BME280;36672;50.710;12.498;2023-03-14T12:17:53;96322.84;;;12.32;59.84
49315;BME280;36672;50.710;12.498;2023-03-14T12:20:20;96321.03;;;12.48;59.97
49315;BME280;36672;50.710;12.498;2023-03-14T12:22:50;96318.56;;;12.36;59.30
49315;BME280;36672;50.710;12.498;2023-03-14T12:25:20;96320.97;;;12.33;59.65
49315;BME280;36672;50.710;12.498;2023-03-14T12:28:02;96325.25;;;12.23;59.78
49315;BME280;36672;50.710;12.498;2023-03-14T12:30:29;96326.03;;;12.14;60.57
49315;BME280;36672;50.710;12.498;2023-03-14T12:33:10;96335.97;;;11.98;61.53
49315;BME280;36672;50.710;12.498;2023-03-14T12:38:03;96320.06;;;12.12;61.41
49315;BME280;36672;50.710;12.498;2023-03-14T12:40:33;96313.88;;;12.16;60.97
49315;BME280;36672;50.710;12.498;2023-03-14T12:43:01;96311.84;;;12.60;60.68
49315;BME280;36672;50.710;12.498;2023-03-14T12:50:42;96316.22;;;12.92;59.17
49315;BME280;36672;50.710;12.498;2023-03-14T12:55:41;96308.56;;;12.57;59.72
49315;BME280;36672;50.710;12.498;2023-03-14T12:58:15;96303.44;;;12.51;60.36
49315;BME280;36672;50.710;12.498;2023-03-14T13:00:42;96308.56;;;12.52;60.83
49315;BME280;36672;50.710;12.498;2023-03-14T13:03:20;96314.78;;;12.43;61.19
49315;BME280;36672;50.710;12.498;2023-03-14T13:05:54;96286.88;;;12.47;61.22
49315;BME280;36672;50.710;12.498;2023-03-14T13:11:05;96283.19;;;13.26;59.55
49315;BME280;36672;50.710;12.498;2023-03-14T13:13:34;96288.31;;;13.63;58.18
49315;BME280;36672;50.710;12.498;2023-03-14T13:16:00;96288.72;;;14.12;56.26
49315;BME280;36672;50.710;12.498;2023-03-14T13:18:30;96277.06;;;14.61;55.69
49315;BME280;36672;50.710;12.498;2023-03-14T13:21:17;96289.53;;;14.73;53.70
49315;BME280;36672;50.710;12.498;2023-03-14T13:23:54;96279.91;;;14.86;53.99
49315;BME280;36672;50.710;12.498;2023-03-14T13:26:20;96276.28;;;15.00;54.06
49315;BME280;36672;50.710;12.498;2023-03-14T13:28:45;96278.06;;;15.15;52.93
49315;BME280;36672;50.710;12.498;2023-03-14T13:31:16;96275.91;;;15.18;53.04
49315;BME280;36672;50.710;12.498;2023-03-14T13:33:43;96272.53;;;15.26;53.32
49315;BME280;36672;50.710;12.498;2023-03-14T13:36:09;96278.28;;;15.24;52.87
49315;BME280;36672;50.710;12.498;2023-03-14T13:38:35;96295.72;;;14.83;52.76
49315;BME280;36672;50.710;12.498;2023-03-14T13:41:03;96274.06;;;14.63;52.99
49315;BME280;36672;50.710;12.498;2023-03-14T13:43:33;96286.91;;;14.52;54.50
49315;BME280;36672;50.710;12.498;2023-03-14T13:46:01;96282.97;;;14.29;54.69
49315;BME280;36672;50.710;12.498;2023-03-14T13:48:28;96288.72;;;14.12;55.54
49315;BME280;36672;50.710;12.498;2023-03-14T13:51:04;96286.94;;;13.76;55.70
49315;BME280;36672;50.710;12.498;2023-03-14T13:53:30;96283.69;;;13.64;56.77
49315;BME280;36672;50.710;12.498;2023-03-14T13:55:55;96280.47;;;13.46;57.07